createdAt,value
2018-09-09T00:01:55.028Z,6.93
2018-09-09T00:04:23.075Z,7.30
2018-09-09T00:06:51.126Z,7.13
2018-09-09T00:09:24.648Z,7.40
2018-09-09T00:11:52.761Z,7.27
2018-09-09T00:14:21.808Z,7.43
2018-09-09T00:16:50.033Z,6.70
2018-09-09T00:19:18.118Z,7.20
2018-09-09T00:21:46.256Z,6.87
2018-09-09T00:24:14.441Z,6.70
2018-09-09T00:26:42.524Z,6.53
2018-09-09T00:29:10.559Z,6.90
2018-09-09T00:31:38.653Z,6.80
2018-09-09T00:34:06.814Z,7.43
2018-09-09T00:36:34.968Z,7.33
2018-09-09T00:39:03.289Z,7.20
2018-09-09T00:41:31.351Z,6.67
2018-09-09T00:43:59.596Z,6.97
2018-09-09T00:46:27.654Z,6.43
2018-09-09T00:48:59.973Z,7.07
2018-09-09T00:51:33.618Z,6.87
2018-09-09T00:54:01.702Z,6.53
2018-09-09T00:56:29.770Z,6.97
2018-09-09T00:58:57.848Z,6.10
2018-09-09T01:01:25.955Z,6.67
2018-09-09T01:03:54.060Z,6.77
2018-09-09T01:06:22.123Z,6.50
2018-09-09T01:08:50.177Z,6.90
2018-09-09T01:11:18.247Z,6.37
2018-09-09T01:13:46.301Z,6.93
2018-09-09T01:16:14.371Z,6.60
2018-09-09T01:18:42.500Z,6.83
2018-09-09T01:21:10.643Z,6.10
2018-09-09T01:23:38.720Z,6.40
2018-09-09T01:26:06.835Z,6.33
2018-09-09T01:28:34.911Z,6.50
2018-09-09T01:31:02.983Z,6.30
2018-09-09T01:33:31.048Z,6.37
2018-09-09T01:35:59.165Z,6.73
2018-09-09T01:38:27.220Z,6.37
2018-09-09T01:40:55.305Z,7.37
2018-09-09T01:43:23.373Z,6.87
2018-09-09T01:45:51.444Z,6.70
2018-09-09T01:48:19.590Z,7.13
2018-09-09T01:50:47.692Z,6.40
2018-09-09T01:53:15.723Z,6.53
2018-09-09T01:55:43.836Z,6.40
2018-09-09T01:58:11.904Z,6.00
2018-09-09T02:00:40.027Z,6.20
2018-09-09T02:03:08.094Z,6.37
2018-09-09T02:05:36.170Z,6.20
2018-09-09T02:08:04.248Z,6.27
2018-09-09T02:10:32.320Z,5.73
2018-09-09T02:13:00.404Z,6.03
2018-09-09T02:15:28.503Z,6.10
2018-09-09T02:17:56.650Z,6.70
2018-09-09T02:20:24.749Z,6.00
2018-09-09T02:22:52.976Z,7.33
2018-09-09T02:25:21.139Z,6.27
2018-09-09T02:27:49.252Z,6.10
2018-09-09T02:30:17.334Z,6.20
2018-09-09T02:32:45.409Z,5.77
2018-09-09T02:35:13.498Z,5.83
2018-09-09T02:37:41.614Z,5.73
2018-09-09T02:40:09.681Z,5.93
2018-09-09T02:42:37.793Z,5.80
2018-09-09T02:45:05.825Z,5.73
2018-09-09T02:47:34.084Z,5.50
2018-09-09T02:50:02.144Z,5.77
2018-09-09T02:52:30.248Z,6.00
2018-09-09T02:54:58.330Z,5.53
2018-09-09T02:57:26.492Z,6.10
2018-09-09T02:59:54.594Z,5.90
2018-09-09T03:02:22.775Z,5.90
2018-09-09T03:04:50.842Z,5.67
2018-09-09T03:07:18.939Z,6.27
2018-09-09T03:09:46.995Z,5.63
2018-09-09T03:12:15.063Z,5.57
2018-09-09T03:14:43.195Z,5.80
2018-09-09T03:17:11.264Z,5.10
2018-09-09T03:19:39.338Z,5.20
2018-09-09T03:22:07.413Z,5.50
2018-09-09T03:24:35.456Z,5.47
2018-09-09T03:27:03.544Z,5.40
2018-09-09T03:29:31.674Z,4.87
2018-09-09T03:31:59.745Z,4.80
2018-09-09T03:34:27.800Z,4.90
2018-09-09T03:36:55.980Z,4.50
2018-09-09T03:39:24.113Z,4.63
2018-09-09T03:41:52.186Z,4.53
2018-09-09T03:44:20.259Z,4.40
2018-09-09T03:46:48.364Z,4.20
2018-09-09T03:49:16.432Z,4.27
2018-09-09T03:51:44.478Z,4.90
2018-09-09T03:54:12.606Z,4.40
2018-09-09T03:56:40.664Z,4.37
2018-09-09T03:59:08.746Z,4.67
2018-09-09T04:01:36.808Z,4.40
2018-09-09T04:04:04.954Z,5.03
2018-09-09T04:06:33.141Z,4.23
2018-09-09T04:09:01.200Z,4.30
2018-09-09T04:11:29.338Z,4.43
2018-09-09T04:13:57.471Z,4.80
2018-09-09T04:16:25.577Z,4.73
2018-09-09T04:18:53.661Z,4.77
2018-09-09T04:21:21.730Z,4.30
2018-09-09T04:23:49.832Z,4.93
2018-09-09T04:26:17.928Z,4.77
2018-09-09T04:28:45.999Z,5.20
2018-09-09T04:31:20.606Z,5.20
2018-09-09T04:33:48.769Z,5.03
2018-09-09T04:36:16.810Z,5.20
2018-09-09T04:38:44.894Z,5.13
2018-09-09T04:41:13.033Z,5.00
2018-09-09T04:43:41.173Z,5.60
2018-09-09T04:46:09.293Z,5.70
2018-09-09T04:48:37.362Z,5.20
2018-09-09T04:51:12.395Z,5.43
2018-09-09T04:53:40.505Z,5.07
2018-09-09T04:56:08.585Z,5.30
2018-09-09T04:58:36.673Z,4.87
2018-09-09T05:01:04.959Z,5.50
2018-09-09T05:03:33.052Z,5.30
2018-09-09T05:06:01.138Z,4.83
2018-09-09T05:08:29.265Z,5.03
2018-09-09T05:10:57.340Z,5.23
2018-09-09T05:13:25.442Z,5.30
2018-09-09T05:15:53.642Z,5.53
2018-09-09T05:18:21.734Z,5.80
2018-09-09T05:20:49.841Z,5.07
2018-09-09T05:23:17.932Z,5.63
2018-09-09T05:25:45.997Z,5.30
2018-09-09T05:28:14.076Z,5.53
2018-09-09T05:30:42.181Z,4.40
2018-09-09T05:33:10.241Z,5.13
2018-09-09T05:35:38.311Z,4.77
2018-09-09T05:38:06.481Z,5.17
2018-09-09T05:40:34.603Z,5.00
2018-09-09T05:43:02.655Z,4.90
2018-09-09T05:45:30.813Z,4.67
2018-09-09T05:47:58.884Z,4.80
2018-09-09T05:50:26.989Z,4.93
2018-09-09T05:52:55.028Z,5.17
2018-09-09T05:55:23.132Z,4.93
2018-09-09T05:57:51.296Z,4.90
2018-09-09T06:00:19.404Z,5.23
2018-09-09T06:02:47.473Z,4.83
2018-09-09T06:05:15.608Z,5.60
2018-09-09T06:07:43.707Z,5.30
2018-09-09T06:10:11.804Z,5.00
2018-09-09T06:12:39.872Z,5.17
2018-09-09T06:15:07.968Z,5.30
2018-09-09T06:17:36.044Z,5.00
2018-09-09T06:20:04.183Z,4.90
2018-09-09T06:22:32.261Z,5.27
2018-09-09T06:25:00.376Z,4.97
2018-09-09T06:27:28.622Z,4.77
2018-09-09T06:29:56.811Z,4.67
2018-09-09T06:32:24.961Z,4.57
2018-09-09T06:34:53.168Z,5.33
2018-09-09T06:37:28.033Z,4.30
2018-09-09T06:39:56.098Z,4.90
2018-09-09T06:42:24.182Z,4.50
2018-09-09T06:44:52.261Z,4.47
2018-09-09T06:47:20.327Z,4.77
2018-09-09T06:49:48.404Z,4.60
2018-09-09T06:52:16.435Z,4.30
2018-09-09T06:54:44.562Z,4.53
2018-09-09T06:57:12.808Z,5.73
2018-09-09T06:59:40.906Z,4.83
2018-09-09T07:02:08.996Z,4.53
2018-09-09T07:04:37.132Z,4.57
2018-09-09T07:07:05.303Z,4.63
2018-09-09T07:09:33.461Z,4.60
2018-09-09T07:12:01.639Z,4.13
2018-09-09T07:14:29.634Z,4.07
2018-09-09T07:16:57.698Z,4.23
2018-09-09T07:19:25.752Z,4.90
2018-09-09T07:21:53.832Z,4.97
2018-09-09T07:24:21.902Z,4.97
2018-09-09T07:26:50.041Z,5.13
2018-09-09T07:29:18.156Z,5.13
2018-09-09T07:31:46.288Z,5.00
2018-09-09T07:34:14.411Z,4.70
2018-09-09T07:36:42.443Z,4.90
2018-09-09T07:39:10.510Z,5.33
2018-09-09T07:41:38.601Z,5.23
2018-09-09T07:44:06.682Z,4.30
2018-09-09T07:46:34.806Z,4.60
2018-09-09T07:49:02.912Z,5.07
2018-09-09T07:51:31.016Z,4.40
2018-09-09T07:53:59.089Z,4.23
2018-09-09T07:56:27.180Z,5.30
2018-09-09T07:58:55.234Z,4.50
2018-09-09T08:01:23.302Z,4.47
2018-09-09T08:03:51.364Z,4.53
2018-09-09T08:06:19.437Z,4.70
2018-09-09T08:08:47.554Z,4.60
2018-09-09T08:11:15.635Z,4.70
2018-09-09T08:13:43.756Z,4.47
2018-09-09T08:16:11.915Z,4.40
2018-09-09T08:18:40.028Z,4.13
2018-09-09T08:21:08.156Z,4.53
2018-09-09T08:23:36.246Z,4.10
2018-09-09T08:26:04.333Z,4.23
2018-09-09T08:28:32.397Z,4.40
2018-09-09T08:31:00.468Z,4.70
2018-09-09T08:33:28.566Z,4.00
2018-09-09T08:35:56.680Z,4.83
2018-09-09T08:38:24.784Z,4.13
2018-09-09T08:40:52.902Z,4.13
2018-09-09T08:43:21.117Z,3.93
2018-09-09T08:45:49.317Z,3.80
2018-09-09T08:48:17.412Z,3.80
2018-09-09T08:50:45.516Z,3.80
2018-09-09T08:53:13.590Z,4.20
2018-09-09T08:55:41.676Z,3.80
2018-09-09T08:58:09.763Z,4.00
2018-09-09T09:00:37.864Z,3.80
2018-09-09T09:03:06.546Z,4.00
2018-09-09T09:05:34.652Z,3.50
2018-09-09T09:08:02.762Z,3.33
2018-09-09T09:10:30.956Z,3.70
2018-09-09T09:12:59.097Z,3.80
2018-09-09T09:15:27.219Z,3.93
2018-09-09T09:17:55.345Z,2.93
2018-09-09T09:20:23.459Z,3.23
2018-09-09T09:22:51.571Z,3.27
2018-09-09T09:25:19.642Z,3.33
2018-09-09T09:27:47.864Z,3.00
2018-09-09T09:30:15.967Z,3.13
2018-09-09T09:32:46.972Z,3.43
2018-09-09T09:35:15.043Z,3.27
2018-09-09T09:37:43.123Z,2.97
2018-09-09T09:40:11.204Z,3.43
2018-09-09T09:42:39.293Z,3.23
2018-09-09T09:45:07.364Z,3.60
2018-09-09T09:47:35.505Z,3.23
2018-09-09T09:50:03.681Z,3.27
2018-09-09T09:52:31.940Z,3.10
2018-09-09T09:55:00.293Z,3.20
2018-09-09T09:57:28.395Z,3.50
2018-09-09T09:59:56.498Z,2.97
2018-09-09T10:02:24.701Z,2.80
2018-09-09T10:04:53.178Z,2.80
2018-09-09T10:07:21.343Z,2.53
2018-09-09T10:09:49.457Z,2.47
2018-09-09T10:12:18.094Z,4.70
2018-09-09T10:14:46.205Z,3.00
2018-09-09T10:17:15.587Z,2.73
2018-09-09T10:19:43.696Z,2.67
2018-09-09T10:22:11.863Z,2.87
2018-09-09T10:24:39.979Z,3.10
2018-09-09T10:27:08.075Z,2.63
2018-09-09T10:29:36.185Z,2.53
2018-09-09T10:32:04.240Z,2.40
2018-09-09T10:34:32.327Z,2.87
2018-09-09T10:37:00.384Z,2.03
2018-09-09T10:39:28.511Z,2.40
2018-09-09T10:41:56.672Z,2.07
2018-09-09T10:44:24.845Z,2.40
2018-09-09T10:46:53.052Z,2.80
2018-09-09T10:49:21.788Z,2.23
2018-09-09T10:54:26.608Z,2.30
2018-09-09T10:56:54.650Z,2.30
2018-09-09T10:59:22.781Z,2.30
2018-09-09T11:01:50.888Z,2.73
2018-09-09T11:04:19.141Z,2.60
2018-09-09T11:06:47.388Z,2.17
2018-09-09T11:09:15.428Z,2.20
2018-09-09T11:11:43.492Z,2.50
2018-09-09T11:14:11.558Z,2.10
2018-09-09T11:16:39.623Z,2.03
2018-09-09T11:19:07.777Z,2.30
2018-09-09T11:21:35.951Z,1.80
2018-09-09T11:24:04.083Z,2.03
2018-09-09T11:26:32.332Z,2.20
2018-09-09T11:29:00.518Z,2.07
2018-09-09T11:31:28.812Z,2.47
2018-09-09T11:33:56.917Z,2.90
2018-09-09T11:36:25.068Z,2.90
2018-09-09T11:38:53.136Z,2.33
2018-09-09T11:41:21.200Z,2.13
2018-09-09T11:43:49.305Z,2.10
2018-09-09T11:46:17.754Z,2.90
2018-09-09T11:48:45.834Z,2.17
2018-09-09T11:51:13.912Z,2.20
2018-09-09T11:53:42.277Z,2.03
2018-09-09T11:56:10.391Z,2.77
2018-09-09T11:58:38.552Z,1.90
2018-09-09T12:01:06.626Z,2.23
2018-09-09T12:03:34.791Z,2.10
2018-09-09T12:06:02.920Z,2.27
2018-09-09T12:08:31.740Z,2.30
2018-09-09T12:10:59.791Z,2.10
2018-09-09T12:13:27.928Z,2.00
2018-09-09T12:15:56.343Z,2.00
2018-09-09T12:18:24.409Z,2.07
2018-09-09T12:20:52.481Z,2.20
2018-09-09T12:23:20.570Z,2.50
2018-09-09T12:25:49.426Z,2.20
2018-09-09T12:28:17.562Z,1.90
2018-09-09T12:30:45.993Z,2.27
2018-09-09T12:33:14.092Z,2.20
2018-09-09T12:35:42.194Z,2.30
2018-09-09T12:38:10.282Z,2.20
2018-09-09T12:40:38.979Z,2.20
2018-09-09T12:43:12.730Z,2.00
2018-09-09T12:45:46.339Z,1.90
2018-09-09T12:48:20.339Z,2.20
2018-09-09T12:50:48.450Z,2.20
2018-09-09T12:53:16.717Z,2.00
2018-09-09T12:55:44.984Z,1.90
2018-09-09T12:58:13.498Z,2.00
2018-09-09T13:00:41.607Z,2.10
2018-09-09T13:03:09.733Z,2.47
2018-09-09T13:05:37.781Z,2.20
2018-09-09T13:08:09.225Z,2.17
2018-09-09T13:10:37.575Z,1.67
2018-09-09T13:13:11.288Z,2.13
2018-09-09T13:15:39.389Z,1.83
2018-09-09T13:18:07.621Z,1.73
2018-09-09T13:20:35.739Z,1.80
2018-09-09T13:23:04.165Z,1.50
2018-09-09T13:25:32.336Z,1.50
2018-09-09T13:28:00.455Z,1.80
2018-09-09T13:30:29.580Z,1.60
2018-09-09T13:32:57.689Z,1.90
2018-09-09T13:35:25.831Z,1.80
2018-09-09T13:37:53.942Z,1.67
2018-09-09T13:40:22.150Z,1.80
2018-09-09T13:42:50.683Z,1.83
2018-09-09T13:45:18.895Z,1.83
2018-09-09T13:47:46.987Z,1.87
2018-09-09T13:50:15.424Z,1.50
2018-09-09T13:52:43.988Z,2.07
2018-09-09T13:55:12.184Z,1.80
2018-09-09T13:57:40.285Z,1.70
2018-09-09T14:00:08.541Z,2.00
2018-09-09T14:02:36.836Z,1.90
2018-09-09T14:05:04.928Z,1.63
2018-09-09T14:07:33.380Z,1.90
2018-09-09T14:10:01.512Z,1.70
2018-09-09T14:12:29.866Z,1.60
2018-09-09T14:14:58.004Z,2.10
2018-09-09T14:17:26.220Z,2.63
2018-09-09T14:19:54.404Z,1.80
2018-09-09T14:22:22.741Z,1.80
2018-09-09T14:24:51.089Z,1.87
2018-09-09T14:27:19.196Z,1.83
2018-09-09T14:29:47.644Z,2.00
2018-09-09T14:32:15.960Z,1.77
2018-09-09T14:34:44.206Z,2.10
2018-09-09T14:37:12.303Z,1.90
2018-09-09T14:39:40.468Z,1.73
2018-09-09T14:42:08.707Z,1.60
2018-09-09T14:44:36.829Z,1.83
2018-09-09T14:47:04.925Z,1.70
2018-09-09T14:49:33.019Z,1.53
2018-09-09T14:52:01.112Z,1.90
2018-09-09T14:54:29.230Z,2.23
2018-09-09T14:56:57.497Z,1.90
2018-09-09T14:59:25.599Z,2.03
2018-09-09T15:01:53.689Z,1.87
2018-09-09T15:04:21.775Z,2.07
2018-09-09T15:06:50.025Z,3.27
2018-09-09T15:09:18.066Z,1.87
2018-09-09T15:11:46.166Z,2.10
2018-09-09T15:14:14.269Z,2.10
2018-09-09T15:16:42.493Z,2.00
2018-09-09T15:19:10.416Z,2.23
2018-09-09T15:21:38.503Z,1.90
2018-09-09T15:24:06.598Z,2.13
2018-09-09T15:26:34.718Z,2.00
2018-09-09T15:29:02.931Z,2.10
2018-09-09T15:31:31.074Z,1.77
2018-09-09T15:33:59.161Z,2.00
2018-09-09T15:36:27.243Z,2.20
2018-09-09T15:38:55.350Z,2.00
2018-09-09T15:41:23.446Z,2.10
2018-09-09T15:43:51.535Z,2.20
2018-09-09T15:46:19.658Z,1.80
2018-09-09T15:48:47.991Z,2.40
2018-09-09T15:51:16.094Z,2.30
2018-09-09T15:53:44.178Z,2.47
2018-09-09T15:56:12.283Z,2.73
2018-09-09T15:58:40.418Z,2.90
2018-09-09T16:01:08.560Z,2.07
2018-09-09T16:03:36.632Z,2.23
2018-09-09T16:06:04.764Z,2.20
2018-09-09T16:08:32.855Z,1.70
2018-09-09T16:11:00.953Z,2.23
2018-09-09T16:13:29.028Z,2.00
2018-09-09T16:15:57.127Z,1.77
2018-09-09T16:18:25.216Z,2.00
2018-09-09T16:20:53.332Z,2.20
2018-09-09T16:23:21.442Z,1.80
2018-09-09T16:25:49.544Z,2.07
2018-09-09T16:28:17.960Z,2.40
2018-09-09T16:30:46.116Z,2.33
2018-09-09T16:33:14.200Z,2.10
2018-09-09T16:35:42.345Z,2.00
2018-09-09T16:38:10.461Z,2.53
2018-09-09T16:40:38.550Z,2.23
2018-09-09T16:43:06.623Z,2.43
2018-09-09T16:45:34.731Z,2.20
2018-09-09T16:48:02.815Z,2.43
2018-09-09T16:50:30.976Z,2.50
2018-09-09T16:52:59.087Z,2.10
2018-09-09T16:55:27.220Z,2.40
2018-09-09T16:57:55.296Z,2.40
2018-09-09T17:00:23.403Z,2.80
2018-09-09T17:02:51.455Z,2.53
2018-09-09T17:05:19.630Z,2.73
2018-09-09T17:07:47.776Z,2.10
2018-09-09T17:10:15.876Z,2.30
2018-09-09T17:12:43.976Z,2.20
2018-09-09T17:15:12.016Z,2.27
2018-09-09T17:17:40.082Z,2.20
2018-09-09T17:20:08.134Z,2.20
2018-09-09T17:22:36.267Z,2.30
2018-09-09T17:25:04.319Z,2.50
2018-09-09T17:27:32.484Z,2.00
2018-09-09T17:30:00.585Z,2.43
2018-09-09T17:32:28.638Z,2.60
2018-09-09T17:34:56.714Z,2.60
2018-09-09T17:37:24.815Z,3.00
2018-09-09T17:39:52.878Z,2.60
2018-09-09T17:42:21.012Z,2.80
2018-09-09T17:44:49.124Z,2.60
2018-09-09T17:47:17.263Z,2.70
2018-09-09T17:49:45.400Z,2.73
2018-09-09T17:52:13.533Z,2.87
2018-09-09T17:54:41.624Z,2.77
2018-09-09T17:57:09.730Z,3.27
2018-09-09T17:59:37.944Z,3.37
2018-09-09T18:02:06.095Z,3.43
2018-09-09T18:04:34.235Z,4.03
2018-09-09T18:07:02.415Z,4.40
2018-09-09T18:09:30.520Z,4.33
2018-09-09T18:11:58.891Z,5.07
2018-09-09T18:14:27.000Z,4.90
2018-09-09T18:16:55.097Z,5.00
2018-09-09T18:19:23.245Z,5.30
2018-09-09T18:21:51.351Z,5.13
2018-09-09T18:24:19.433Z,5.20
2018-09-09T18:26:47.514Z,5.70
2018-09-09T18:29:15.874Z,5.80
2018-09-09T18:31:43.975Z,6.50
2018-09-09T18:34:12.054Z,7.10
2018-09-09T18:36:40.134Z,6.47
2018-09-09T18:39:09.320Z,6.43
2018-09-09T18:41:37.395Z,6.47
2018-09-09T18:44:05.553Z,6.07
2018-09-09T18:46:33.783Z,6.47
2018-09-09T18:49:01.859Z,5.93
2018-09-09T18:51:30.032Z,6.20
2018-09-09T18:53:58.103Z,6.13
2018-09-09T18:56:26.189Z,5.70
2018-09-09T18:58:54.308Z,5.50
2018-09-09T19:01:22.439Z,5.53
2018-09-09T19:03:50.562Z,5.77
2018-09-09T19:06:18.696Z,5.83
2018-09-09T19:08:46.703Z,7.03
2018-09-09T19:13:49.635Z,6.10
2018-09-09T19:16:17.728Z,6.07
2018-09-09T19:18:45.800Z,7.00
2018-09-09T19:21:13.916Z,6.90
2018-09-09T19:23:42.012Z,6.30
2018-09-09T19:26:10.148Z,6.97
2018-09-09T19:28:38.295Z,7.10
2018-09-09T19:31:06.367Z,6.43
2018-09-09T19:33:34.486Z,9.13
2018-09-09T19:36:02.593Z,6.83
2018-09-09T19:38:30.695Z,6.40
2018-09-09T19:40:58.783Z,7.07
2018-09-09T19:43:26.895Z,6.80
2018-09-09T19:45:55.312Z,6.97
2018-09-09T19:48:23.801Z,6.63
2018-09-09T19:50:51.907Z,6.93
2018-09-09T19:53:19.986Z,7.10
2018-09-09T19:55:48.076Z,8.10
2018-09-09T19:58:16.234Z,7.43
2018-09-09T20:00:44.280Z,7.50
2018-09-09T20:03:12.389Z,7.70
2018-09-09T20:05:40.489Z,8.77
2018-09-09T20:08:08.562Z,9.27
2018-09-09T20:10:36.620Z,8.97
2018-09-09T20:13:04.771Z,9.17
2018-09-09T20:15:32.896Z,8.67
2018-09-09T20:18:00.960Z,9.63
2018-09-09T20:20:29.063Z,8.73
2018-09-09T20:22:57.173Z,9.07
2018-09-09T20:25:25.238Z,8.83
2018-09-09T20:27:53.349Z,9.00
2018-09-09T20:30:21.428Z,8.43
2018-09-09T20:32:49.758Z,8.77
2018-09-09T20:35:18.039Z,9.13
2018-09-09T20:37:46.124Z,8.80
2018-09-09T20:40:14.204Z,9.00
2018-09-09T20:42:42.250Z,10.20
2018-09-09T20:45:10.419Z,8.83
2018-09-09T20:47:38.515Z,8.77
2018-09-09T20:50:06.642Z,8.70
2018-09-09T20:52:34.748Z,7.90
2018-09-09T20:55:02.832Z,8.33
2018-09-09T20:57:31.466Z,8.40
2018-09-09T20:59:59.946Z,8.87
2018-09-09T21:02:28.156Z,8.43
2018-09-09T21:04:56.332Z,8.47
2018-09-09T21:07:24.400Z,9.13
2018-09-09T21:09:52.480Z,8.53
2018-09-09T21:12:20.581Z,8.53
2018-09-09T21:14:48.722Z,7.37
2018-09-09T21:17:16.819Z,7.87
2018-09-09T21:19:44.947Z,7.53
2018-09-09T21:22:13.238Z,7.43
2018-09-09T21:24:41.527Z,7.67
2018-09-09T21:27:09.571Z,7.47
2018-09-09T21:29:37.659Z,8.20
2018-09-09T21:32:06.320Z,7.67
2018-09-09T21:34:34.677Z,8.30
2018-09-09T21:37:03.614Z,8.00
2018-09-09T21:39:31.750Z,8.77
2018-09-09T21:41:59.852Z,8.10
2018-09-09T21:44:27.942Z,8.30
2018-09-09T21:46:56.023Z,8.83
2018-09-09T21:49:24.131Z,8.20
2018-09-09T21:51:52.192Z,8.17
2018-09-09T21:54:20.273Z,7.30
2018-09-09T21:56:48.488Z,8.43
2018-09-09T21:59:18.470Z,8.73
2018-09-09T22:01:52.576Z,6.93
2018-09-09T22:04:22.568Z,7.37
2018-09-09T22:06:50.606Z,7.77
2018-09-09T22:09:18.819Z,8.17
2018-09-09T22:11:46.867Z,7.47
2018-09-09T22:14:14.932Z,7.87
2018-09-09T22:16:43.362Z,7.80
2018-09-09T22:19:12.679Z,8.57
2018-09-09T22:21:40.748Z,8.30
2018-09-09T22:24:08.809Z,7.97
2018-09-09T22:26:36.862Z,8.13
2018-09-09T22:29:04.975Z,8.20
2018-09-09T22:31:33.085Z,7.97
2018-09-09T22:34:01.228Z,8.07
2018-09-09T22:36:29.300Z,7.47
2018-09-09T22:38:57.370Z,8.33
2018-09-09T22:41:25.440Z,8.23
2018-09-09T22:43:53.554Z,8.40
2018-09-09T22:46:21.640Z,8.27
2018-09-09T22:48:49.740Z,8.03
2018-09-09T22:51:17.849Z,8.17
2018-09-09T22:53:46.023Z,8.10
2018-09-09T22:56:14.082Z,8.60
2018-09-09T22:58:42.134Z,7.93
2018-09-09T23:01:10.221Z,8.27
2018-09-09T23:03:38.268Z,8.50
2018-09-09T23:06:06.365Z,8.17
2018-09-09T23:08:34.427Z,8.73
2018-09-09T23:11:02.519Z,8.47
2018-09-09T23:13:30.609Z,8.67
2018-09-09T23:15:58.721Z,8.50
2018-09-09T23:18:26.804Z,8.33
2018-09-09T23:20:54.911Z,8.40
2018-09-09T23:23:22.976Z,8.20
2018-09-09T23:25:51.061Z,8.40
2018-09-09T23:28:19.147Z,7.73
2018-09-09T23:30:53.909Z,7.90
2018-09-09T23:33:21.987Z,8.73
2018-09-09T23:35:50.136Z,8.70
2018-09-09T23:38:18.889Z,7.73
2018-09-09T23:40:47.055Z,8.23
2018-09-09T23:43:15.225Z,8.73
2018-09-09T23:45:43.367Z,7.70
2018-09-09T23:48:11.477Z,8.50
2018-09-09T23:50:39.561Z,8.37
2018-09-09T23:53:10.843Z,8.23
2018-09-09T23:55:38.971Z,7.77
2018-09-09T23:58:07.038Z,7.70
